createdAt,value
2022-08-02T00:00:35.420Z,131.15
2022-08-02T00:03:02.452Z,116.78
2022-08-02T00:05:29.594Z,124.38
2022-08-02T00:07:56.818Z,121.43
2022-08-02T00:10:24.375Z,120.65
2022-08-02T00:12:51.852Z,120.88
2022-08-02T00:15:22.907Z,121.53
2022-08-02T00:17:50.495Z,122.47
2022-08-02T00:20:17.768Z,123.95
2022-08-02T00:22:44.907Z,122.97
2022-08-02T00:25:12.068Z,120.47
2022-08-02T00:27:39.275Z,126.18
2022-08-02T00:30:07.056Z,107.90
2022-08-02T00:32:34.210Z,103.20
2022-08-02T00:35:01.521Z,118.55
2022-08-02T00:37:28.751Z,110.78
2022-08-02T00:39:57.554Z,100.32
2022-08-02T00:42:25.079Z,114.47
2022-08-02T00:44:52.344Z,124.78
2022-08-02T00:47:20.074Z,111.90
2022-08-02T00:50:06.655Z,91.53
2022-08-02T00:52:33.821Z,117.43
2022-08-02T00:55:00.999Z,114.30
2022-08-02T00:57:29.150Z,96.13
2022-08-02T00:59:56.058Z,92.93
2022-08-02T01:02:23.081Z,80.00
2022-08-02T01:04:50.107Z,88.75
2022-08-02T01:07:17.390Z,96.93
2022-08-02T01:09:46.257Z,99.47
2022-08-02T01:12:14.597Z,98.32
2022-08-02T01:14:48.656Z,88.95
2022-08-02T01:17:48.602Z,88.90
2022-08-02T01:20:46.966Z,93.53
2022-08-02T01:23:29.413Z,111.80
2022-08-02T01:26:32.524Z,69.82
2022-08-02T01:29:10.859Z,81.25
2022-08-02T01:31:47.561Z,82.45
2022-08-02T01:34:36.117Z,74.25
2022-08-02T01:37:27.437Z,79.22
2022-08-02T01:40:09.574Z,96.43
2022-08-02T01:42:40.342Z,70.53
2022-08-02T01:45:09.354Z,76.97
2022-08-02T01:47:41.556Z,83.40
2022-08-02T01:50:13.898Z,74.57
2022-08-02T01:52:53.573Z,78.93
2022-08-02T01:55:33.642Z,73.07
2022-08-02T01:58:18.182Z,70.03
2022-08-02T02:00:47.448Z,58.83
2022-08-02T02:03:19.507Z,62.17
2022-08-02T02:05:52.302Z,60.97
2022-08-02T02:08:32.236Z,65.13
2022-08-02T02:12:09.429Z,66.13
2022-08-02T02:13:50.319Z,72.82
2022-08-02T02:16:19.427Z,59.75
2022-08-02T02:18:49.112Z,60.53
2022-08-02T02:21:16.860Z,65.60
2022-08-02T02:23:44.250Z,61.05
2022-08-02T02:26:15.213Z,63.03
2022-08-02T02:28:47.663Z,60.28
2022-08-02T02:31:19.357Z,63.83
2022-08-02T02:33:54.987Z,64.35
2022-08-02T02:36:23.679Z,57.00
2022-08-02T02:38:53.231Z,59.30
2022-08-02T02:41:23.732Z,64.93
2022-08-02T02:46:21.626Z,57.97
2022-08-02T02:48:51.687Z,52.08
2022-08-02T02:51:20.021Z,55.38
2022-08-02T02:54:32.903Z,56.80
2022-08-02T02:56:42.644Z,58.25
2022-08-02T02:59:13.112Z,55.85
2022-08-02T03:01:57.243Z,59.72
2022-08-02T03:04:27.228Z,57.95
2022-08-02T03:07:03.591Z,56.25
2022-08-02T03:09:30.871Z,57.70
2022-08-02T03:11:58.225Z,53.03
2022-08-02T03:14:25.629Z,65.65
2022-08-02T03:16:55.427Z,58.22
2022-08-02T03:19:23.742Z,58.10
2022-08-02T03:22:00.668Z,58.85
2022-08-02T03:24:28.529Z,54.33
2022-08-02T03:26:56.311Z,54.50
2022-08-02T03:29:23.678Z,51.60
2022-08-02T03:31:51.272Z,53.22
2022-08-02T03:34:18.863Z,54.72
2022-08-02T03:36:51.622Z,58.50
2022-08-02T03:39:20.941Z,52.58
2022-08-02T03:41:49.545Z,55.53
2022-08-02T03:44:18.404Z,53.03
2022-08-02T03:46:45.960Z,48.95
2022-08-02T03:49:16.752Z,54.95
2022-08-02T03:51:45.633Z,50.38
2022-08-02T03:54:13.476Z,49.72
2022-08-02T03:56:40.799Z,48.28
2022-08-02T03:59:10.056Z,52.15
2022-08-02T04:01:37.432Z,49.50
2022-08-02T04:04:05.336Z,44.88
2022-08-02T04:06:32.867Z,52.53
2022-08-02T04:08:59.974Z,49.10
2022-08-02T04:11:33.211Z,50.92
2022-08-02T04:14:07.466Z,50.45
2022-08-02T04:16:50.626Z,51.17
2022-08-02T04:19:29.238Z,50.50
2022-08-02T04:21:58.044Z,47.22
2022-08-02T04:24:34.446Z,47.65
2022-08-02T04:27:19.167Z,48.65
2022-08-02T04:29:49.679Z,52.90
2022-08-02T04:32:18.203Z,48.30
2022-08-02T04:35:11.160Z,50.50
2022-08-02T04:37:35.096Z,48.90
2022-08-02T04:40:02.556Z,49.63
2022-08-02T04:42:29.626Z,51.22
2022-08-02T04:44:58.081Z,48.78
2022-08-02T04:47:54.318Z,49.72
2022-08-02T04:50:12.483Z,47.42
2022-08-02T04:52:44.000Z,46.80
2022-08-02T04:55:12.803Z,53.90
2022-08-02T04:57:54.853Z,49.28
2022-08-02T05:00:22.491Z,48.35
2022-08-02T05:02:49.967Z,55.45
2022-08-02T05:05:17.080Z,65.07
2022-08-02T05:07:44.556Z,65.20
2022-08-02T05:10:11.704Z,60.05
2022-08-02T05:12:39.753Z,65.85
2022-08-02T05:15:09.233Z,61.00
2022-08-02T05:17:47.805Z,63.78
2022-08-02T05:20:19.168Z,63.72
2022-08-02T05:22:47.105Z,61.58
2022-08-02T05:25:14.820Z,62.38
2022-08-02T05:27:42.145Z,58.63
2022-08-02T05:30:11.147Z,62.78
2022-08-02T05:32:46.224Z,72.65
2022-08-02T05:35:13.473Z,63.83
2022-08-02T05:37:42.175Z,65.40
2022-08-02T05:40:12.887Z,66.07
2022-08-02T05:42:41.278Z,61.05
2022-08-02T05:45:09.388Z,59.70
2022-08-02T05:47:37.457Z,79.57
2022-08-02T05:50:07.937Z,76.13
2022-08-02T05:53:04.704Z,70.40
2022-08-02T05:55:40.124Z,61.13
2022-08-02T05:58:17.039Z,66.10
2022-08-02T06:00:45.664Z,53.58
2022-08-02T06:03:25.969Z,55.00
2022-08-02T06:06:26.041Z,55.22
2022-08-02T06:09:02.504Z,50.00
2022-08-02T06:12:01.524Z,52.28
2022-08-02T06:14:34.016Z,61.47
2022-08-02T06:17:05.263Z,55.50
2022-08-02T06:19:36.580Z,61.72
2022-08-02T06:22:32.907Z,59.22
2022-08-02T06:25:05.610Z,65.30
2022-08-02T06:27:34.478Z,65.60
2022-08-02T06:30:02.653Z,62.05
2022-08-02T06:32:30.232Z,75.93
2022-08-02T06:34:57.219Z,61.88
2022-08-02T06:37:31.289Z,76.72
2022-08-02T06:40:32.369Z,83.97
2022-08-02T06:43:23.306Z,90.05
2022-08-02T06:45:50.701Z,70.25
2022-08-02T06:48:18.007Z,70.72
2022-08-02T06:50:45.090Z,84.95
2022-08-02T06:53:13.077Z,94.63
2022-08-02T06:55:43.997Z,90.00
2022-08-02T06:58:13.061Z,87.45
2022-08-02T07:00:42.313Z,80.43
2022-08-02T07:03:09.605Z,87.47
2022-08-02T07:05:37.002Z,78.63
2022-08-02T07:08:04.597Z,86.88
2022-08-02T07:10:31.994Z,89.72
2022-08-02T07:13:00.052Z,81.45
2022-08-02T07:15:27.361Z,86.45
2022-08-02T07:17:54.528Z,82.78
2022-08-02T07:20:21.514Z,80.40
2022-08-02T07:22:48.815Z,100.43
2022-08-02T07:25:16.507Z,103.68
2022-08-02T07:27:43.758Z,97.03
2022-08-02T07:30:11.491Z,94.07
2022-08-02T07:32:39.260Z,95.05
2022-08-02T07:35:07.699Z,84.95
2022-08-02T07:37:55.449Z,92.10
2022-08-02T07:40:24.952Z,79.55
2022-08-02T07:42:57.753Z,96.65
2022-08-02T07:45:27.999Z,104.22
2022-08-02T07:47:56.914Z,105.30
2022-08-02T07:50:24.488Z,120.25
2022-08-02T07:52:57.084Z,115.18
2022-08-02T07:55:38.997Z,108.22
2022-08-02T07:58:13.434Z,106.68
2022-08-02T08:00:42.732Z,113.22
2022-08-02T08:03:09.804Z,123.28
2022-08-02T08:05:37.105Z,117.82
2022-08-02T08:08:06.137Z,136.13
2022-08-02T08:10:33.516Z,140.45
2022-08-02T08:13:00.625Z,151.45
2022-08-02T08:15:27.685Z,163.77
2022-08-02T08:17:54.794Z,164.57
2022-08-02T08:20:21.915Z,166.65
2022-08-02T08:22:50.239Z,158.93
2022-08-02T08:25:17.343Z,166.05
2022-08-02T08:27:52.151Z,177.60
2022-08-02T08:30:21.158Z,178.88
2022-08-02T08:32:48.385Z,166.68
2022-08-02T08:35:16.026Z,176.48
2022-08-02T08:37:43.199Z,186.27
2022-08-02T08:40:12.408Z,192.70
2022-08-02T08:42:40.896Z,192.60
2022-08-02T08:45:09.136Z,213.63
2022-08-02T08:47:42.967Z,182.63
2022-08-02T08:50:24.568Z,190.60
2022-08-02T08:53:03.857Z,186.70
2022-08-02T08:55:32.187Z,201.48
2022-08-02T08:58:00.623Z,201.07
2022-08-02T09:00:29.737Z,220.18
2022-08-02T09:02:57.118Z,220.98
2022-08-02T09:05:25.264Z,232.68
2022-08-02T09:07:53.541Z,239.20
2022-08-02T09:10:46.193Z,229.52
2022-08-02T09:13:38.775Z,189.95
2022-08-02T09:16:12.157Z,182.57
2022-08-02T09:18:46.344Z,209.95
2022-08-02T09:21:15.774Z,222.80
2022-08-02T09:23:44.525Z,219.30
2022-08-02T09:26:14.943Z,195.48
2022-08-02T09:28:44.118Z,208.20
2022-08-02T09:31:12.282Z,224.65
2022-08-02T09:33:41.283Z,216.43
2022-08-02T09:36:15.244Z,234.23
2022-08-02T09:39:07.809Z,216.88
2022-08-02T09:41:40.816Z,200.75
2022-08-02T09:44:16.065Z,192.90
2022-08-02T09:46:45.194Z,212.25
2022-08-02T09:49:16.856Z,208.40
2022-08-02T09:51:47.156Z,231.65
2022-08-02T09:54:19.755Z,223.82
2022-08-02T09:56:48.322Z,235.98
2022-08-02T09:59:16.833Z,244.32
2022-08-02T10:01:50.897Z,237.30
2022-08-02T10:04:29.923Z,231.10
2022-08-02T10:06:59.653Z,146.50
2022-08-02T10:09:29.119Z,97.30
2022-08-02T10:11:57.069Z,105.68
2022-08-02T10:14:24.411Z,153.40
2022-08-02T10:16:54.638Z,188.88
2022-08-02T10:20:00.718Z,187.65
2022-08-02T10:22:20.565Z,176.07
2022-08-02T10:24:50.516Z,189.05
2022-08-02T10:27:23.153Z,188.70
2022-08-02T10:29:53.988Z,161.60
2022-08-02T10:32:40.229Z,144.52
2022-08-02T10:35:18.562Z,204.23
2022-08-02T10:37:51.043Z,163.00
2022-08-02T10:40:24.497Z,189.23
2022-08-02T10:42:53.637Z,159.15
2022-08-02T10:45:22.419Z,192.27
2022-08-02T10:48:12.236Z,195.68
2022-08-02T10:50:48.489Z,162.02
2022-08-02T10:53:28.922Z,185.50
2022-08-02T10:58:29.722Z,103.60
2022-08-02T11:00:58.094Z,146.35
2022-08-02T11:03:28.315Z,149.07
2022-08-02T11:06:25.957Z,129.32
2022-08-02T11:09:33.202Z,121.70
2022-08-02T11:12:12.220Z,107.00
2022-08-02T11:14:47.015Z,113.10
2022-08-02T11:17:18.719Z,112.32
2022-08-02T11:20:10.596Z,120.57
2022-08-02T11:22:38.269Z,112.22
2022-08-02T11:25:23.910Z,131.88
2022-08-02T11:27:56.756Z,122.10
2022-08-02T11:30:26.403Z,125.75
2022-08-02T11:35:39.237Z,103.32
2022-08-02T11:38:21.281Z,118.85
2022-08-02T11:40:49.431Z,119.38
2022-08-02T11:43:21.234Z,118.80
2022-08-02T11:45:51.075Z,124.50
2022-08-02T11:48:38.726Z,114.85
2022-08-02T11:51:14.346Z,124.28
2022-08-02T11:53:51.046Z,135.98
2022-08-02T11:56:29.565Z,118.85
2022-08-02T11:59:05.679Z,113.28
2022-08-02T12:01:36.693Z,99.70
2022-08-02T12:04:15.715Z,59.38
2022-08-02T12:06:44.715Z,78.70
2022-08-02T12:11:50.379Z,74.45
2022-08-02T12:14:18.209Z,55.63
2022-08-02T12:17:04.467Z,55.92
2022-08-02T12:19:31.746Z,67.10
2022-08-02T12:22:10.827Z,73.13
2022-08-02T12:24:40.305Z,75.38
2022-08-02T12:27:07.992Z,77.18
2022-08-02T12:29:57.917Z,65.00
2022-08-02T12:32:25.288Z,50.03
2022-08-02T12:35:10.206Z,64.93
2022-08-02T12:37:43.038Z,80.82
2022-08-02T12:40:27.097Z,82.60
2022-08-02T12:43:06.430Z,65.03
2022-08-02T12:45:55.157Z,75.75
2022-08-02T12:48:56.534Z,77.80
2022-08-02T12:51:54.783Z,63.40
2022-08-02T12:54:30.986Z,70.93
2022-08-02T12:57:13.869Z,106.82
2022-08-02T12:59:56.043Z,84.30
2022-08-02T13:02:25.675Z,68.72
2022-08-02T13:04:52.791Z,80.30
2022-08-02T13:07:19.932Z,187.98
2022-08-02T13:09:50.175Z,174.93
2022-08-02T13:12:17.820Z,182.27
2022-08-02T13:14:45.015Z,204.13
2022-08-02T13:17:12.143Z,394.58
2022-08-02T13:19:42.285Z,658.45
2022-08-02T13:22:10.649Z,637.08
2022-08-02T13:24:55.308Z,708.50
2022-08-02T13:27:25.213Z,657.13
2022-08-02T13:29:53.493Z,650.83
2022-08-02T13:32:21.040Z,541.55
2022-08-02T13:34:49.185Z,513.50
2022-08-02T13:37:16.499Z,399.00
2022-08-02T13:40:00.170Z,195.77
2022-08-02T13:42:33.348Z,216.40
2022-08-02T13:45:00.480Z,303.27
2022-08-02T13:48:03.590Z,343.27
2022-08-02T13:50:31.717Z,354.13
2022-08-02T13:52:58.876Z,215.82
2022-08-02T13:55:26.215Z,216.75
2022-08-02T13:57:54.562Z,239.60
2022-08-02T14:00:34.667Z,187.32
2022-08-02T14:03:04.888Z,179.93
2022-08-02T14:05:39.340Z,156.07
2022-08-02T14:08:20.756Z,139.85
2022-08-02T14:10:49.344Z,141.50
2022-08-02T14:13:16.904Z,125.90
2022-08-02T14:16:15.379Z,91.43
2022-08-02T14:18:46.694Z,108.80
2022-08-02T14:21:13.891Z,93.88
2022-08-02T14:23:46.872Z,141.50
2022-08-02T14:26:27.536Z,107.88
2022-08-02T14:28:55.945Z,85.55
2022-08-02T14:31:23.109Z,71.97
2022-08-02T14:33:50.284Z,76.10
2022-08-02T14:36:27.448Z,73.50
2022-08-02T14:38:56.407Z,68.38
2022-08-02T14:41:24.055Z,63.95
2022-08-02T14:44:06.183Z,85.95
2022-08-02T14:46:34.914Z,61.63
2022-08-02T14:49:03.661Z,63.35
2022-08-02T14:51:35.632Z,67.55
2022-08-02T14:54:08.618Z,46.00
2022-08-02T14:56:39.741Z,67.72
2022-08-02T14:59:07.166Z,48.20
2022-08-02T15:01:34.708Z,63.85
2022-08-02T15:04:15.523Z,48.85
2022-08-02T15:06:43.130Z,50.03
2022-08-02T15:09:10.390Z,65.00
2022-08-02T15:11:47.804Z,57.72
2022-08-02T15:14:25.301Z,63.75
2022-08-02T15:16:58.889Z,44.95
2022-08-02T15:19:56.647Z,59.03
2022-08-02T15:22:16.202Z,47.28
2022-08-02T15:24:45.245Z,58.13
2022-08-02T15:27:14.381Z,47.47
2022-08-02T15:29:46.249Z,45.05
2022-08-02T15:32:14.352Z,63.92
2022-08-02T15:34:42.055Z,43.05
2022-08-02T15:37:09.209Z,47.25
2022-08-02T15:39:36.961Z,46.67
2022-08-02T15:42:04.814Z,46.90
2022-08-02T15:44:32.107Z,65.18
2022-08-02T15:46:59.200Z,48.40
2022-08-02T15:49:26.730Z,52.75
2022-08-02T15:51:54.722Z,50.55
2022-08-02T15:54:21.891Z,49.70
2022-08-02T15:56:49.050Z,45.95
2022-08-02T15:59:19.521Z,58.47
2022-08-02T16:01:48.064Z,79.30
2022-08-02T16:04:16.317Z,50.15
2022-08-02T16:06:44.339Z,52.42
2022-08-02T16:09:12.015Z,57.25
2022-08-02T16:11:39.530Z,58.95
2022-08-02T16:14:07.058Z,50.55
2022-08-02T16:16:35.501Z,52.38
2022-08-02T16:19:47.850Z,53.30
2022-08-02T16:21:54.061Z,68.70
2022-08-02T16:24:21.614Z,55.25
2022-08-02T16:26:49.336Z,58.80
2022-08-02T16:29:19.039Z,58.70
2022-08-02T16:31:50.149Z,65.47
2022-08-02T16:34:17.969Z,69.07
2022-08-02T16:36:45.872Z,72.82
2022-08-02T16:39:13.347Z,76.65
2022-08-02T16:41:50.909Z,63.33
2022-08-02T16:44:29.051Z,85.63
2022-08-02T16:47:01.242Z,58.33
2022-08-02T16:50:07.151Z,63.72
2022-08-02T16:52:18.772Z,69.88
2022-08-02T16:54:49.446Z,69.28
2022-08-02T16:57:19.788Z,71.50
2022-08-02T17:02:26.711Z,61.58
2022-08-02T17:04:55.386Z,72.72
2022-08-02T17:08:07.929Z,80.00
2022-08-02T17:10:10.032Z,69.85
2022-08-02T17:12:38.205Z,84.50
2022-08-02T17:16:16.541Z,79.45
2022-08-02T17:17:54.037Z,78.43
2022-08-02T17:20:21.249Z,71.47
2022-08-02T17:22:52.081Z,76.15
2022-08-02T17:25:19.696Z,76.22
2022-08-02T17:27:47.075Z,80.80
2022-08-02T17:30:26.738Z,75.78
2022-08-02T17:32:54.599Z,79.53
2022-08-02T17:35:40.035Z,82.05
2022-08-02T17:38:11.164Z,78.72
2022-08-02T17:40:45.113Z,78.72
2022-08-02T17:43:14.673Z,84.10
2022-08-02T17:46:00.957Z,79.75
2022-08-02T17:48:54.989Z,73.65
2022-08-02T17:52:16.003Z,74.18
2022-08-02T17:54:11.434Z,73.70
2022-08-02T17:59:30.723Z,62.25
2022-08-02T18:02:08.479Z,67.80
2022-08-02T18:04:37.922Z,61.03
2022-08-02T18:07:09.628Z,76.67
2022-08-02T18:09:43.347Z,78.47
2022-08-02T18:12:14.473Z,68.20
2022-08-02T18:14:46.027Z,85.00
2022-08-02T18:17:16.635Z,68.40
2022-08-02T18:19:55.478Z,74.95
2022-08-02T18:22:30.556Z,71.25
2022-08-02T18:24:57.696Z,84.63
2022-08-02T18:27:24.825Z,68.10
2022-08-02T18:30:00.299Z,64.97
2022-08-02T18:33:58.737Z,73.03
2022-08-02T18:35:19.988Z,72.53
2022-08-02T18:40:36.104Z,66.07
2022-08-02T18:43:03.610Z,94.93
2022-08-02T18:45:36.861Z,92.78
2022-08-02T18:48:22.348Z,67.57
2022-08-02T18:50:53.529Z,78.05
2022-08-02T18:53:39.034Z,93.90
2022-08-02T18:56:20.473Z,77.47
2022-08-02T18:58:53.157Z,63.55
2022-08-02T19:01:33.526Z,79.78
2022-08-02T19:04:04.771Z,87.15
2022-08-02T19:06:32.715Z,71.35
2022-08-02T19:09:12.842Z,71.20
2022-08-02T19:11:47.551Z,94.28
2022-08-02T19:14:27.311Z,77.13
2022-08-02T19:16:59.583Z,73.55
2022-08-02T19:19:29.078Z,74.22
2022-08-02T19:22:18.296Z,103.45
2022-08-02T19:24:50.323Z,92.28
2022-08-02T19:30:07.475Z,78.38
2022-08-02T19:32:41.502Z,70.25
2022-08-02T19:35:29.702Z,74.60
2022-08-02T19:38:07.423Z,77.78
2022-08-02T19:40:34.664Z,73.75
2022-08-02T19:44:21.048Z,79.43
2022-08-02T19:45:50.936Z,93.50
2022-08-02T19:48:24.159Z,82.43
2022-08-02T19:51:00.670Z,76.85
2022-08-02T19:53:47.406Z,74.82
2022-08-02T19:56:20.516Z,76.75
2022-08-02T19:58:51.421Z,83.43
2022-08-02T20:01:23.487Z,91.47
2022-08-02T20:03:53.076Z,86.07
2022-08-02T20:06:29.976Z,75.30
2022-08-02T20:09:00.935Z,86.53
2022-08-02T20:14:16.505Z,83.43
2022-08-02T20:16:43.881Z,95.03
2022-08-02T20:19:13.982Z,94.05
2022-08-02T20:21:42.814Z,95.05
2022-08-02T20:24:13.666Z,81.65
2022-08-02T20:26:47.269Z,83.18
2022-08-02T20:29:17.495Z,91.40
2022-08-02T20:32:04.873Z,79.53
2022-08-02T20:34:33.648Z,87.65
2022-08-02T20:37:59.538Z,85.70
2022-08-02T20:39:51.916Z,92.65
2022-08-02T20:42:23.127Z,87.13
2022-08-02T20:44:54.693Z,96.97
2022-08-02T20:50:49.335Z,92.63
2022-08-02T20:53:23.593Z,82.15
2022-08-02T20:55:55.017Z,90.97
2022-08-02T20:58:27.299Z,95.32
2022-08-02T21:00:58.997Z,101.88
2022-08-02T21:03:38.887Z,96.95
2022-08-02T21:06:08.372Z,93.65
2022-08-02T21:08:35.510Z,89.57
2022-08-02T21:13:47.282Z,72.00
2022-08-02T21:16:27.395Z,74.57
2022-08-02T21:19:00.180Z,82.70
2022-08-02T21:21:43.016Z,78.38
2022-08-02T21:24:12.324Z,88.30
2022-08-02T21:26:39.559Z,94.93
2022-08-02T21:29:07.435Z,101.00
2022-08-02T21:31:36.514Z,98.75
2022-08-02T21:34:07.539Z,103.28
2022-08-02T21:36:49.465Z,91.43
2022-08-02T21:39:17.978Z,98.93
2022-08-02T21:41:46.622Z,110.57
2022-08-02T21:44:21.812Z,101.40
2022-08-02T21:46:52.406Z,97.97
2022-08-02T21:51:49.327Z,79.30
2022-08-02T21:54:21.319Z,91.65
2022-08-02T21:56:52.846Z,94.43
2022-08-02T21:59:25.349Z,104.68
2022-08-02T22:01:56.797Z,100.10
2022-08-02T22:04:47.698Z,97.95
2022-08-02T22:07:23.982Z,97.03
2022-08-02T22:09:52.768Z,97.38
2022-08-02T22:12:20.792Z,99.32
2022-08-02T22:14:55.085Z,100.10
2022-08-02T22:17:50.737Z,91.85
2022-08-02T22:20:18.342Z,93.95
2022-08-02T22:22:50.422Z,96.72
2022-08-02T22:25:27.185Z,100.45
2022-08-02T22:28:37.414Z,105.68
2022-08-02T22:30:54.803Z,102.40
2022-08-02T22:33:47.224Z,98.40
2022-08-02T22:36:28.601Z,91.10
2022-08-02T22:38:55.911Z,103.93
2022-08-02T22:41:23.133Z,102.72
2022-08-02T22:43:50.653Z,115.03
2022-08-02T22:46:18.013Z,107.38
2022-08-02T22:48:45.758Z,99.75
2022-08-02T22:51:14.003Z,105.50
2022-08-02T22:53:42.539Z,101.85
2022-08-02T22:56:10.308Z,103.93
2022-08-02T22:58:41.052Z,56.58
2022-08-02T22:58:56.233Z,97.53
2022-08-02T22:59:00.376Z,76.45
2022-08-02T22:59:07.950Z,88.30
2022-08-02T23:01:24.821Z,101.82
2022-08-02T23:03:51.937Z,104.68
2022-08-02T23:06:22.528Z,109.18
2022-08-02T23:08:50.242Z,109.68
2022-08-02T23:11:17.368Z,110.47
2022-08-02T23:13:45.521Z,96.03
2022-08-02T23:16:31.029Z,88.95
2022-08-02T23:19:16.896Z,100.70
2022-08-02T23:22:01.040Z,101.80
2022-08-02T23:24:33.284Z,100.22
2022-08-02T23:27:01.204Z,106.13
2022-08-02T23:29:28.310Z,97.13
2022-08-02T23:31:55.665Z,105.18
2022-08-02T23:34:22.872Z,105.28
2022-08-02T23:36:50.040Z,111.60
2022-08-02T23:39:17.226Z,108.57
2022-08-02T23:41:44.270Z,107.47
2022-08-02T23:44:14.416Z,102.10
2022-08-02T23:46:46.981Z,102.53
2022-08-02T23:49:14.703Z,99.80
2022-08-02T23:51:43.462Z,101.22
2022-08-02T23:54:11.714Z,103.40
2022-08-02T23:56:39.762Z,113.97
2022-08-02T23:59:10.643Z,114.18
